LRBS/BBU METAR and TAF weather

Enter ICAO airport designator
Station Type Date Time Source
LRBS METAR 2020/01/20 19:00 UTC NOAA

LRBS 201900Z 08006KT 8000 NSC M01/M04 Q1043 BECMG 5000 BR


Station Type Date Time Source
LRBS Decoded METAR 2020/01/20 19:00 UTC NOAA

Bucuresti / Imh, Romania (LRBS) 44-30N 026-08E 91M
Jan 20, 2020 - 02:00 PM EST / 2020.01.20 1900 UTC
Wind: from the E (080 degrees) at 7 MPH (6 KT):0
Visibility: 4 mile(s):0
Temperature: 30 F (-1 C)
Windchill: 23 F (-5 C):1
Dew Point: 24 F (-4 C)
Relative Humidity: 80%
Pressure (altimeter): 30.80 in. Hg (1043 hPa)
ob: LRBS 201900Z 08006KT 8000 NSC M01/M04 Q1043 BECMG 5000 BR
cycle: 19

Station Type Date Time Source
LRBS TAF 2020/01/20 18:33 UTC NOAA

TAF TAF LRBS 201700Z 2018/2118 VRB04KT CAVOK
BECMG 2020/2022 3000 BR BKN010
TEMPO 2102/2108 1500 BR BKN005
BECMG 2108/2110 26010KT 9999 NSW SCT015

Example: see airport list